createdAt,value
2023-05-02T00:00:28.229Z,15.52
2023-05-02T00:01:33.753Z,17.98
2023-05-02T00:02:41.679Z,18.65
2023-05-02T00:03:44.195Z,18.40
2023-05-02T00:04:45.947Z,17.35
2023-05-02T00:05:48.570Z,16.85
2023-05-02T00:06:54.353Z,16.33
2023-05-02T00:07:57.409Z,16.38
2023-05-02T00:09:05.487Z,18.35
2023-05-02T00:10:09.528Z,18.65
2023-05-02T00:11:17.425Z,16.40
2023-05-02T00:12:23.641Z,17.67
2023-05-02T00:13:27.181Z,14.50
2023-05-02T00:14:30.363Z,17.20
2023-05-02T00:15:37.096Z,18.58
2023-05-02T00:16:39.996Z,18.17
2023-05-02T00:17:43.786Z,15.95
2023-05-02T00:18:45.811Z,17.27
2023-05-02T00:19:48.483Z,17.45
2023-05-02T00:20:50.805Z,18.15
2023-05-02T00:21:52.691Z,17.10
2023-05-02T00:22:56.629Z,16.13
2023-05-02T00:24:02.566Z,17.52
2023-05-02T00:25:05.101Z,17.75
2023-05-02T00:26:10.696Z,18.80
2023-05-02T00:27:13.012Z,17.98
2023-05-02T00:28:15.592Z,20.10
2023-05-02T00:29:18.632Z,19.20
2023-05-02T00:30:21.396Z,18.33
2023-05-02T00:31:24.707Z,20.42
2023-05-02T00:32:27.606Z,19.48
2023-05-02T00:33:29.226Z,17.17
2023-05-02T00:34:31.727Z,17.48
2023-05-02T00:35:33.840Z,17.80
2023-05-02T00:36:36.542Z,18.35
2023-05-02T00:37:41.645Z,16.20
2023-05-02T00:38:44.161Z,18.08
2023-05-02T00:39:46.966Z,18.42
2023-05-02T00:40:52.104Z,18.45
2023-05-02T00:42:01.916Z,17.63
2023-05-02T00:43:03.671Z,17.63
2023-05-02T00:44:07.501Z,17.25
2023-05-02T00:45:09.760Z,19.65
2023-05-02T00:46:13.257Z,19.77
2023-05-02T00:47:15.505Z,20.67
2023-05-02T00:48:21.245Z,19.27
2023-05-02T00:49:22.948Z,19.33
2023-05-02T00:50:26.991Z,17.15
2023-05-02T00:51:29.729Z,18.20
2023-05-02T00:52:32.349Z,20.17
2023-05-02T00:53:34.141Z,19.35
2023-05-02T00:54:39.037Z,21.15
2023-05-02T00:55:42.132Z,19.88
2023-05-02T00:56:43.770Z,21.70
2023-05-02T00:57:46.132Z,20.88
2023-05-02T00:58:47.653Z,20.20
2023-05-02T00:59:50.373Z,20.45
2023-05-02T01:01:08.383Z,18.92
2023-05-02T01:02:26.085Z,19.60
2023-05-02T01:03:38.307Z,17.60
2023-05-02T01:04:39.864Z,19.40
2023-05-02T01:06:01.128Z,19.23
2023-05-02T01:07:12.874Z,18.65
2023-05-02T01:08:21.156Z,17.40
2023-05-02T01:09:43.390Z,19.50
2023-05-02T01:11:16.201Z,21.30
2023-05-02T01:12:29.012Z,19.08
2023-05-02T01:13:33.105Z,20.15
2023-05-02T01:14:46.197Z,19.48
2023-05-02T01:15:48.975Z,20.25
2023-05-02T01:16:52.879Z,20.05
2023-05-02T01:17:56.779Z,21.15
2023-05-02T01:19:02.089Z,20.85
2023-05-02T01:20:09.784Z,21.25
2023-05-02T01:21:12.361Z,21.35
2023-05-02T01:22:15.092Z,24.02
2023-05-02T01:23:26.346Z,22.08
2023-05-02T01:24:36.559Z,22.65
2023-05-02T01:26:02.734Z,21.30
2023-05-02T01:27:22.824Z,21.17
2023-05-02T01:28:42.833Z,23.00
2023-05-02T01:29:46.402Z,22.52
2023-05-02T01:30:50.594Z,22.65
2023-05-02T01:31:55.250Z,22.65
2023-05-02T01:33:00.305Z,24.75
2023-05-02T01:34:02.598Z,22.73
2023-05-02T01:35:04.837Z,21.80
2023-05-02T01:36:07.541Z,23.55
2023-05-02T01:37:11.153Z,21.73
2023-05-02T01:38:17.103Z,21.60
2023-05-02T01:39:20.445Z,21.25
2023-05-02T01:40:23.203Z,20.90
2023-05-02T01:41:29.561Z,21.02
2023-05-02T01:42:33.480Z,21.33
2023-05-02T01:43:35.440Z,21.40
2023-05-02T01:44:37.751Z,20.30
2023-05-02T01:45:42.092Z,18.33
2023-05-02T01:46:45.115Z,18.70
2023-05-02T01:47:47.112Z,17.50
2023-05-02T01:48:49.488Z,15.88
2023-05-02T01:49:52.898Z,18.65
2023-05-02T01:50:56.582Z,17.90
2023-05-02T01:52:01.304Z,16.15
2023-05-02T01:53:03.808Z,16.52
2023-05-02T01:54:07.673Z,16.88
2023-05-02T01:55:09.810Z,18.63
2023-05-02T01:56:14.461Z,19.75
2023-05-02T01:57:17.519Z,17.75
2023-05-02T01:58:19.845Z,18.38
2023-05-02T01:59:23.072Z,18.40
2023-05-02T02:00:25.692Z,17.65
2023-05-02T02:01:29.335Z,15.68
2023-05-02T02:02:33.144Z,15.70
2023-05-02T02:03:35.312Z,14.80
2023-05-02T02:04:38.931Z,16.48
2023-05-02T02:05:46.613Z,18.33
2023-05-02T02:06:56.000Z,18.27
2023-05-02T02:07:59.575Z,18.63
2023-05-02T02:09:04.641Z,20.63
2023-05-02T02:10:07.272Z,18.98
2023-05-02T02:11:13.576Z,19.42
2023-05-02T02:12:23.613Z,19.27
2023-05-02T02:13:31.233Z,20.92
2023-05-02T02:14:42.037Z,20.75
2023-05-02T02:15:46.976Z,18.92
2023-05-02T02:16:53.104Z,20.10
2023-05-02T02:17:58.368Z,17.95
2023-05-02T02:19:04.872Z,20.40
2023-05-02T02:20:10.897Z,22.13
2023-05-02T02:21:17.568Z,21.55
2023-05-02T02:22:21.518Z,22.17
2023-05-02T02:23:26.352Z,23.52
2023-05-02T02:24:28.704Z,22.30
2023-05-02T02:25:31.589Z,21.77
2023-05-02T02:26:33.559Z,23.38
2023-05-02T02:27:35.419Z,20.77
2023-05-02T02:28:37.138Z,18.70
2023-05-02T02:29:38.668Z,19.90
2023-05-02T02:30:40.594Z,20.60
2023-05-02T02:31:42.616Z,18.10
2023-05-02T02:32:45.383Z,19.75
2023-05-02T02:33:47.183Z,16.58
2023-05-02T02:34:50.723Z,19.02
2023-05-02T02:35:59.426Z,20.08
2023-05-02T02:37:06.159Z,17.17
2023-05-02T02:38:26.968Z,19.65
2023-05-02T02:39:35.401Z,15.52
2023-05-02T02:40:49.695Z,16.30
2023-05-02T02:42:05.204Z,17.35
2023-05-02T02:43:07.823Z,17.48
2023-05-02T02:44:23.267Z,17.25
2023-05-02T02:45:24.802Z,18.65
2023-05-02T02:46:46.688Z,19.27
2023-05-02T02:47:56.358Z,18.48
2023-05-02T02:49:10.554Z,18.00
2023-05-02T02:50:14.990Z,17.15
2023-05-02T02:51:36.967Z,18.95
2023-05-02T02:52:38.644Z,19.25
2023-05-02T02:53:44.609Z,19.42
2023-05-02T02:54:57.443Z,20.15
2023-05-02T02:56:03.879Z,21.25
2023-05-02T02:57:11.472Z,20.90
2023-05-02T02:58:20.375Z,19.33
2023-05-02T02:59:31.427Z,20.77
2023-05-02T03:00:33.506Z,21.08
2023-05-02T03:01:39.297Z,22.10
2023-05-02T03:02:42.798Z,22.65
2023-05-02T03:03:50.077Z,19.52
2023-05-02T03:04:54.918Z,21.10
2023-05-02T03:06:02.761Z,21.77
2023-05-02T03:07:04.404Z,20.20
2023-05-02T03:08:06.766Z,22.45
2023-05-02T03:09:15.324Z,22.45
2023-05-02T03:10:18.188Z,19.63
2023-05-02T03:11:19.938Z,22.58
2023-05-02T03:12:26.494Z,24.75
2023-05-02T03:13:29.373Z,25.45
2023-05-02T03:14:33.573Z,24.70
2023-05-02T03:15:44.288Z,25.40
2023-05-02T03:16:47.254Z,24.38
2023-05-02T03:17:49.385Z,26.25
2023-05-02T03:18:51.188Z,23.15
2023-05-02T03:19:52.679Z,27.20
2023-05-02T03:20:56.494Z,27.35
2023-05-02T03:22:07.387Z,25.67
2023-05-02T03:23:09.157Z,27.70
2023-05-02T03:24:11.111Z,28.92
2023-05-02T03:25:13.562Z,27.58
2023-05-02T03:26:15.430Z,29.40
2023-05-02T03:27:17.592Z,28.25
2023-05-02T03:28:23.256Z,29.17
2023-05-02T03:29:25.470Z,29.38
2023-05-02T03:30:27.223Z,30.30
2023-05-02T03:31:29.665Z,27.83
2023-05-02T03:32:31.258Z,29.27
2023-05-02T03:33:34.006Z,31.30
2023-05-02T03:34:35.959Z,29.83
2023-05-02T03:35:39.432Z,30.85
2023-05-02T03:36:40.953Z,31.55
2023-05-02T03:37:44.789Z,30.67
2023-05-02T03:38:48.128Z,33.25
2023-05-02T03:39:56.384Z,32.72
2023-05-02T03:41:00.941Z,32.33
2023-05-02T03:42:02.941Z,33.28
2023-05-02T03:43:04.979Z,33.88
2023-05-02T03:44:06.973Z,30.65
2023-05-02T03:45:12.497Z,33.88
2023-05-02T03:46:15.549Z,32.00
2023-05-02T03:47:17.186Z,33.00
2023-05-02T03:48:19.747Z,32.55
2023-05-02T03:49:22.181Z,33.75
2023-05-02T03:50:27.936Z,31.83
2023-05-02T03:51:30.029Z,31.67
2023-05-02T03:52:31.944Z,27.63
2023-05-02T03:53:33.850Z,31.63
2023-05-02T03:54:38.383Z,31.05
2023-05-02T03:55:46.968Z,27.30
2023-05-02T03:56:48.974Z,32.00
2023-05-02T03:57:52.045Z,28.63
2023-05-02T03:58:55.326Z,30.33
2023-05-02T03:59:56.949Z,25.23
2023-05-02T04:00:58.554Z,29.08
2023-05-02T04:02:03.785Z,24.30
2023-05-02T04:03:08.802Z,29.17
2023-05-02T04:04:12.678Z,26.92
2023-05-02T04:05:14.451Z,26.00
2023-05-02T04:06:16.045Z,23.85
2023-05-02T04:07:22.199Z,23.95
2023-05-02T04:08:25.356Z,25.73
2023-05-02T04:09:27.333Z,21.50
2023-05-02T04:10:28.927Z,24.70
2023-05-02T04:11:31.110Z,25.95
2023-05-02T04:12:32.735Z,24.88
2023-05-02T04:13:37.474Z,22.77
2023-05-02T04:14:40.744Z,24.85
2023-05-02T04:15:42.417Z,24.10
2023-05-02T04:16:50.659Z,24.30
2023-05-02T04:17:52.802Z,23.42
2023-05-02T04:18:54.460Z,20.98
2023-05-02T04:19:56.285Z,20.48
2023-05-02T04:20:57.907Z,23.52
2023-05-02T04:22:00.738Z,23.05
2023-05-02T04:23:02.649Z,22.60
2023-05-02T04:24:04.547Z,21.33
2023-05-02T04:25:09.449Z,21.25
2023-05-02T04:26:11.539Z,21.05
2023-05-02T04:27:15.161Z,18.80
2023-05-02T04:28:17.281Z,18.50
2023-05-02T04:29:19.080Z,21.38
2023-05-02T04:30:23.096Z,20.85
2023-05-02T04:31:28.580Z,19.05
2023-05-02T04:32:33.045Z,21.33
2023-05-02T04:33:35.166Z,20.60
2023-05-02T04:34:36.949Z,22.02
2023-05-02T04:35:42.307Z,21.90
2023-05-02T04:36:47.027Z,24.55
2023-05-02T04:37:48.849Z,20.63
2023-05-02T04:38:50.489Z,24.42
2023-05-02T04:39:52.782Z,23.02
2023-05-02T04:40:54.943Z,21.02
2023-05-02T04:41:56.530Z,20.90
2023-05-02T04:42:58.499Z,20.70
2023-05-02T04:44:01.053Z,19.83
2023-05-02T04:45:02.750Z,21.45
2023-05-02T04:46:05.395Z,23.15
2023-05-02T04:47:07.220Z,23.27
2023-05-02T04:48:08.894Z,21.55
2023-05-02T04:49:11.164Z,22.50
2023-05-02T04:50:13.000Z,23.92
2023-05-02T04:51:17.735Z,23.10
2023-05-02T04:52:21.766Z,23.67
2023-05-02T04:53:26.284Z,20.83
2023-05-02T04:54:30.680Z,20.80
2023-05-02T04:55:32.658Z,20.23
2023-05-02T04:56:34.383Z,20.35
2023-05-02T04:57:36.029Z,18.95
2023-05-02T04:58:37.636Z,21.95
2023-05-02T04:59:40.667Z,22.52
2023-05-02T05:00:45.780Z,21.27
2023-05-02T05:01:51.086Z,21.80
2023-05-02T05:02:54.704Z,21.95
2023-05-02T05:04:00.946Z,21.52
2023-05-02T05:05:03.828Z,24.15
2023-05-02T05:06:05.869Z,22.63
2023-05-02T05:07:10.152Z,22.98
2023-05-02T05:08:12.196Z,22.98
2023-05-02T05:09:14.022Z,20.70
2023-05-02T05:10:15.940Z,21.58
2023-05-02T05:11:19.213Z,25.23
2023-05-02T05:12:21.877Z,26.80
2023-05-02T05:13:23.660Z,24.02
2023-05-02T05:14:25.674Z,23.33
2023-05-02T05:15:27.507Z,21.20
2023-05-02T05:16:29.943Z,22.10
2023-05-02T05:17:32.589Z,24.38
2023-05-02T05:18:41.162Z,23.05
2023-05-02T05:19:42.864Z,24.35
2023-05-02T05:20:48.900Z,22.67
2023-05-02T05:21:54.101Z,21.75
2023-05-02T05:22:56.039Z,20.23
2023-05-02T05:24:01.233Z,21.10
2023-05-02T05:25:03.130Z,19.90
2023-05-02T05:26:20.250Z,20.83
2023-05-02T05:27:24.924Z,19.52
2023-05-02T05:28:27.706Z,22.80
2023-05-02T05:29:31.486Z,22.98
2023-05-02T05:30:33.034Z,21.05
2023-05-02T05:31:34.635Z,22.70
2023-05-02T05:32:36.467Z,23.65
2023-05-02T05:33:38.761Z,21.73
2023-05-02T05:34:40.666Z,23.23
2023-05-02T05:35:42.363Z,23.20
2023-05-02T05:36:44.151Z,21.67
2023-05-02T05:37:46.454Z,21.52
2023-05-02T05:38:47.958Z,22.20
2023-05-02T05:39:50.323Z,22.45
2023-05-02T05:40:52.380Z,21.13
2023-05-02T05:41:54.791Z,21.70
2023-05-02T05:42:56.412Z,25.58
2023-05-02T05:44:03.205Z,24.27
2023-05-02T05:45:05.412Z,25.98
2023-05-02T05:46:07.890Z,21.63
2023-05-02T05:47:09.915Z,20.52
2023-05-02T05:48:13.025Z,20.42
2023-05-02T05:49:18.097Z,19.60
2023-05-02T05:50:19.924Z,18.95
2023-05-02T05:51:21.698Z,17.63
2023-05-02T05:52:23.705Z,18.00
2023-05-02T05:53:26.420Z,18.10
2023-05-02T05:54:28.212Z,17.70
2023-05-02T05:55:29.832Z,16.13
2023-05-02T05:56:31.832Z,16.50
2023-05-02T05:57:33.456Z,17.08
2023-05-02T05:58:35.381Z,14.52
2023-05-02T05:59:37.372Z,15.15
2023-05-02T06:00:39.627Z,15.27
2023-05-02T06:01:41.867Z,14.45
2023-05-02T06:02:45.491Z,15.15
2023-05-02T06:03:50.033Z,14.27
2023-05-02T06:04:52.013Z,13.50
2023-05-02T06:05:54.277Z,13.98
2023-05-02T06:06:58.146Z,13.57
2023-05-02T06:08:03.049Z,14.30
2023-05-02T06:09:05.873Z,14.20
2023-05-02T06:10:11.803Z,13.63
2023-05-02T06:11:15.567Z,14.23
2023-05-02T06:12:18.201Z,13.77
2023-05-02T06:13:19.848Z,12.70
2023-05-02T06:14:21.379Z,15.25
2023-05-02T06:15:23.585Z,14.80
2023-05-02T06:16:25.279Z,12.15
2023-05-02T06:17:27.936Z,11.93
2023-05-02T06:18:30.092Z,12.20
2023-05-02T06:19:31.743Z,12.30
2023-05-02T06:20:33.251Z,10.00
2023-05-02T06:21:40.321Z,9.80
2023-05-02T06:22:43.517Z,9.57
2023-05-02T06:23:45.921Z,8.40
2023-05-02T06:24:47.855Z,8.80
2023-05-02T06:25:50.784Z,9.00
2023-05-02T06:26:52.910Z,8.33
2023-05-02T06:27:54.530Z,7.47
2023-05-02T06:28:56.238Z,7.63
2023-05-02T06:29:58.204Z,7.47
2023-05-02T06:31:03.963Z,7.00
2023-05-02T06:32:07.801Z,8.00
2023-05-02T06:33:09.912Z,6.63
2023-05-02T06:34:12.111Z,6.20
2023-05-02T06:35:13.640Z,6.70
2023-05-02T06:36:15.995Z,6.73
2023-05-02T06:37:17.591Z,6.70
2023-05-02T06:38:20.009Z,7.13
2023-05-02T06:39:21.987Z,7.90
2023-05-02T06:40:23.469Z,7.13
2023-05-02T06:41:25.792Z,5.63
2023-05-02T06:42:27.619Z,6.07
2023-05-02T06:43:29.403Z,6.90
2023-05-02T06:44:31.267Z,6.50
2023-05-02T06:45:34.282Z,6.53
2023-05-02T06:46:36.274Z,7.10
2023-05-02T06:47:41.598Z,6.33
2023-05-02T06:48:43.506Z,6.20
2023-05-02T06:49:45.296Z,6.10
2023-05-02T06:50:47.233Z,5.93
2023-05-02T06:51:48.755Z,5.77
2023-05-02T06:52:50.190Z,5.37
2023-05-02T06:53:55.381Z,6.10
2023-05-02T06:54:57.006Z,5.00
2023-05-02T06:56:08.474Z,5.50
2023-05-02T06:57:11.032Z,5.37
2023-05-02T06:58:14.121Z,4.90
2023-05-02T06:59:17.423Z,4.60
2023-05-02T07:00:19.740Z,5.17
2023-05-02T07:01:21.619Z,4.47
2023-05-02T07:02:23.426Z,4.97
2023-05-02T07:03:25.295Z,4.23
2023-05-02T07:04:29.519Z,4.60
2023-05-02T07:05:31.840Z,4.70
2023-05-02T07:06:33.705Z,4.80
2023-05-02T07:07:35.970Z,4.60
2023-05-02T07:08:37.876Z,4.70
2023-05-02T07:09:44.089Z,4.33
2023-05-02T07:10:46.140Z,4.50
2023-05-02T07:11:47.959Z,4.67
2023-05-02T07:12:56.725Z,4.80
2023-05-02T07:13:59.426Z,4.00
2023-05-02T07:15:03.559Z,4.70
2023-05-02T07:16:05.375Z,4.30
2023-05-02T07:17:07.217Z,4.30
2023-05-02T07:18:13.153Z,4.83
2023-05-02T07:19:14.762Z,4.73
2023-05-02T07:20:16.957Z,4.93
2023-05-02T07:21:19.560Z,4.63
2023-05-02T07:22:23.206Z,4.90
2023-05-02T07:23:25.494Z,3.77
2023-05-02T07:24:27.029Z,4.20
2023-05-02T07:25:28.668Z,4.90
2023-05-02T07:26:30.912Z,3.73
2023-05-02T07:27:34.836Z,4.23
2023-05-02T07:28:37.991Z,5.10
2023-05-02T07:29:39.597Z,5.33
2023-05-02T07:30:41.629Z,5.43
2023-05-02T07:31:43.590Z,6.17
2023-05-02T07:32:45.394Z,5.47
2023-05-02T07:33:47.926Z,6.00
2023-05-02T07:34:50.123Z,6.37
2023-05-02T07:35:52.274Z,5.60
2023-05-02T07:36:54.098Z,6.07
2023-05-02T07:37:56.007Z,6.10
2023-05-02T07:38:57.552Z,6.27
2023-05-02T07:39:59.919Z,6.37
2023-05-02T07:41:02.504Z,6.63
2023-05-02T07:42:04.522Z,5.50
2023-05-02T07:43:06.431Z,6.00
2023-05-02T07:44:08.030Z,5.40
2023-05-02T07:45:09.905Z,5.17
2023-05-02T07:46:11.918Z,5.00
2023-05-02T07:47:14.567Z,5.73
2023-05-02T07:48:17.364Z,6.17
2023-05-02T07:49:21.291Z,5.70
2023-05-02T07:50:24.026Z,6.40
2023-05-02T07:51:27.289Z,5.43
2023-05-02T07:52:29.078Z,5.20
2023-05-02T07:53:32.383Z,6.27
2023-05-02T07:54:33.796Z,6.37
2023-05-02T07:55:36.289Z,6.40
2023-05-02T07:56:37.757Z,5.50
2023-05-02T07:57:39.799Z,6.30
2023-05-02T07:58:42.358Z,6.40
2023-05-02T07:59:44.302Z,5.80
2023-05-02T08:00:48.090Z,5.50
2023-05-02T08:01:49.566Z,6.37
2023-05-02T08:02:53.814Z,6.23
2023-05-02T08:03:55.913Z,7.47
2023-05-02T08:04:57.860Z,6.43
2023-05-02T08:06:06.542Z,6.43
2023-05-02T08:07:09.591Z,6.60
2023-05-02T08:08:12.556Z,6.23
2023-05-02T08:09:14.302Z,6.47
2023-05-02T08:10:36.493Z,6.20
2023-05-02T08:11:39.456Z,6.57
2023-05-02T08:12:41.692Z,6.77
2023-05-02T08:13:43.665Z,7.47
2023-05-02T08:14:45.273Z,6.07
2023-05-02T08:15:47.348Z,6.73
2023-05-02T08:16:50.083Z,5.97
2023-05-02T08:17:55.210Z,6.60
2023-05-02T08:18:58.206Z,6.30
2023-05-02T08:20:02.882Z,5.37
2023-05-02T08:21:05.427Z,6.43
2023-05-02T08:22:07.875Z,6.43
2023-05-02T08:23:09.491Z,5.67
2023-05-02T08:24:11.164Z,6.43
2023-05-02T08:25:13.904Z,6.20
2023-05-02T08:26:16.177Z,6.40
2023-05-02T08:27:20.592Z,6.20
2023-05-02T08:28:23.412Z,8.73
2023-05-02T08:29:24.954Z,7.40
2023-05-02T08:30:26.361Z,6.57
2023-05-02T08:31:30.260Z,6.63
2023-05-02T08:32:33.836Z,9.47
2023-05-02T08:33:35.447Z,9.53
2023-05-02T08:34:38.391Z,10.03
2023-05-02T08:35:40.891Z,10.77
2023-05-02T08:36:42.640Z,11.20
2023-05-02T08:37:44.268Z,12.07
2023-05-02T08:38:46.619Z,12.40
2023-05-02T08:39:48.214Z,10.90
2023-05-02T08:40:49.862Z,10.67
2023-05-02T08:41:51.583Z,11.13
2023-05-02T08:42:54.532Z,11.07
2023-05-02T08:43:57.590Z,11.40
2023-05-02T08:45:02.518Z,10.40
2023-05-02T08:46:08.453Z,15.00
2023-05-02T08:47:13.406Z,15.40
2023-05-02T08:48:18.408Z,14.83
2023-05-02T08:49:20.994Z,13.00
2023-05-02T08:50:22.970Z,12.10
2023-05-02T08:51:24.979Z,11.93
2023-05-02T08:52:27.409Z,12.20
2023-05-02T08:53:30.863Z,14.43
2023-05-02T08:54:33.070Z,15.40
2023-05-02T08:55:38.655Z,15.33
2023-05-02T08:56:40.601Z,12.87
2023-05-02T08:57:46.159Z,15.67
2023-05-02T08:58:47.610Z,16.10
2023-05-02T08:59:49.929Z,13.90
2023-05-02T09:00:52.502Z,15.50
2023-05-02T09:01:55.855Z,12.77
2023-05-02T09:03:05.445Z,15.83
2023-05-02T09:04:07.273Z,14.63
2023-05-02T09:05:11.846Z,16.20
2023-05-02T09:06:16.457Z,12.20
2023-05-02T09:07:18.395Z,13.67
2023-05-02T09:08:23.941Z,12.27
2023-05-02T09:09:26.196Z,15.90
2023-05-02T09:10:29.011Z,18.10
2023-05-02T09:11:30.952Z,16.23
2023-05-02T09:12:32.767Z,13.40
2023-05-02T09:13:35.961Z,13.40
2023-05-02T09:14:38.417Z,16.50
2023-05-02T09:15:40.031Z,15.23
2023-05-02T09:16:42.851Z,16.00
2023-05-02T09:17:46.118Z,15.90
2023-05-02T09:18:49.514Z,16.10
2023-05-02T09:19:59.843Z,16.00
2023-05-02T09:21:02.039Z,13.80
2023-05-02T09:22:06.335Z,15.90
2023-05-02T09:23:09.238Z,16.37
2023-05-02T09:24:22.696Z,17.87
2023-05-02T09:25:24.534Z,16.00
2023-05-02T09:26:29.519Z,18.27
2023-05-02T09:27:49.309Z,17.87
2023-05-02T09:28:52.970Z,19.47
2023-05-02T09:30:14.463Z,19.90
2023-05-02T09:32:44.815Z,20.00
2023-05-02T09:33:48.435Z,21.40
2023-05-02T09:35:06.300Z,18.80
2023-05-02T09:36:08.885Z,19.63
2023-05-02T09:37:13.812Z,19.57
2023-05-02T09:38:21.054Z,17.20
2023-05-02T09:39:26.948Z,18.67
2023-05-02T09:40:30.325Z,18.80
2023-05-02T09:41:40.061Z,18.20
2023-05-02T09:42:42.561Z,15.80
2023-05-02T09:43:44.530Z,20.10
2023-05-02T09:44:48.057Z,17.13
2023-05-02T09:45:59.995Z,17.50
2023-05-02T09:47:04.456Z,16.70
2023-05-02T09:48:06.238Z,18.00
2023-05-02T09:49:10.411Z,16.27
2023-05-02T09:50:17.223Z,16.30
2023-05-02T09:51:19.460Z,17.00
2023-05-02T09:52:22.245Z,17.63
2023-05-02T09:53:27.465Z,19.27
2023-05-02T09:54:38.478Z,16.80
2023-05-02T09:55:40.191Z,20.37
2023-05-02T09:56:56.491Z,20.27
2023-05-02T09:57:59.528Z,22.00
2023-05-02T09:59:14.973Z,18.43
2023-05-02T10:00:19.599Z,18.60
2023-05-02T10:01:34.190Z,18.90
2023-05-02T10:02:37.872Z,18.83
2023-05-02T10:03:41.616Z,18.47
2023-05-02T10:04:43.312Z,18.63
2023-05-02T10:05:47.091Z,19.77
2023-05-02T10:06:51.850Z,20.57
2023-05-02T10:07:53.770Z,19.10
2023-05-02T10:08:55.648Z,19.43
2023-05-02T10:09:59.906Z,19.80
2023-05-02T10:11:08.056Z,20.80
2023-05-02T10:12:17.343Z,16.93
2023-05-02T10:13:20.783Z,19.87
2023-05-02T10:14:23.449Z,18.67
2023-05-02T10:15:26.610Z,16.67
2023-05-02T10:16:29.450Z,17.27
2023-05-02T10:17:32.191Z,20.20
2023-05-02T10:18:42.276Z,16.80
2023-05-02T10:19:44.170Z,16.00
2023-05-02T10:20:53.830Z,17.40
2023-05-02T10:21:56.529Z,19.53
2023-05-02T10:23:02.258Z,16.97
2023-05-02T10:24:05.124Z,18.07
2023-05-02T10:25:07.845Z,19.73
2023-05-02T10:26:12.583Z,18.20
2023-05-02T10:27:16.008Z,20.60
2023-05-02T10:28:19.170Z,22.53
2023-05-02T10:29:21.436Z,22.20
2023-05-02T10:30:23.781Z,21.03
2023-05-02T10:31:26.352Z,17.90
2023-05-02T10:32:32.977Z,21.60
2023-05-02T10:33:35.627Z,20.00
2023-05-02T10:34:37.585Z,20.60
2023-05-02T10:35:41.646Z,21.10
2023-05-02T10:36:44.009Z,20.20
2023-05-02T10:37:46.293Z,18.67
2023-05-02T10:38:48.832Z,22.23
2023-05-02T10:39:50.928Z,22.60
2023-05-02T10:41:01.040Z,21.43
2023-05-02T10:42:10.725Z,20.47
2023-05-02T10:43:16.785Z,22.10
2023-05-02T10:44:20.767Z,21.53
2023-05-02T10:45:35.775Z,23.10
2023-05-02T10:46:41.837Z,22.97
2023-05-02T10:47:46.949Z,22.70
2023-05-02T10:49:00.898Z,23.20
2023-05-02T10:50:03.415Z,21.60
2023-05-02T10:51:06.976Z,23.40
2023-05-02T10:52:27.996Z,22.10
2023-05-02T10:53:29.656Z,23.03
2023-05-02T10:54:31.185Z,21.43
2023-05-02T10:55:34.889Z,22.47
2023-05-02T10:56:56.423Z,21.70
2023-05-02T10:57:58.486Z,18.80
2023-05-02T10:59:20.153Z,21.00
2023-05-02T11:00:29.689Z,18.83
2023-05-02T11:01:34.474Z,22.03
2023-05-02T11:02:37.989Z,19.97
2023-05-02T11:04:01.070Z,22.23
2023-05-02T11:05:08.243Z,21.60
2023-05-02T11:06:11.813Z,21.90
2023-05-02T11:07:17.573Z,19.30
2023-05-02T11:08:23.181Z,20.80
2023-05-02T11:09:27.483Z,22.10
2023-05-02T11:10:29.209Z,20.53
2023-05-02T11:11:43.217Z,21.40
2023-05-02T11:12:52.027Z,17.13
2023-05-02T11:13:55.271Z,20.33
2023-05-02T11:14:56.904Z,18.93
2023-05-02T11:16:00.644Z,18.90
2023-05-02T11:17:07.592Z,18.60
2023-05-02T11:18:13.306Z,17.13
2023-05-02T11:19:15.013Z,16.70
2023-05-02T11:20:20.818Z,14.80
2023-05-02T11:21:27.721Z,16.60
2023-05-02T11:22:32.509Z,18.97
2023-05-02T11:23:37.062Z,18.97
2023-05-02T11:24:45.203Z,17.00
2023-05-02T11:25:50.824Z,18.27
2023-05-02T11:26:55.462Z,19.17
2023-05-02T11:27:57.276Z,19.60
2023-05-02T11:29:01.822Z,13.93
2023-05-02T11:30:10.277Z,17.47
2023-05-02T11:31:27.330Z,18.03
2023-05-02T11:32:44.580Z,18.23
2023-05-02T11:33:55.502Z,17.03
2023-05-02T11:34:57.994Z,17.10
2023-05-02T11:36:00.662Z,17.60
2023-05-02T11:37:10.697Z,16.40
2023-05-02T11:38:14.057Z,16.90
2023-05-02T11:39:19.952Z,19.07
2023-05-02T11:40:29.448Z,17.33
2023-05-02T11:41:42.783Z,17.58
2023-05-02T11:42:44.474Z,18.43
2023-05-02T11:43:46.551Z,16.10
2023-05-02T11:44:59.078Z,15.37
2023-05-02T11:46:03.024Z,13.70
2023-05-02T11:47:08.512Z,16.97
2023-05-02T11:48:11.775Z,14.33
2023-05-02T11:49:15.133Z,17.47
2023-05-02T11:50:17.950Z,14.70
2023-05-02T11:51:23.106Z,14.83
2023-05-02T11:52:26.746Z,16.17
2023-05-02T11:53:32.211Z,15.70
2023-05-02T11:54:33.709Z,16.80
2023-05-02T11:55:35.552Z,17.53
2023-05-02T11:56:37.795Z,19.17
2023-05-02T11:57:39.959Z,17.73
2023-05-02T11:58:41.530Z,13.97
2023-05-02T11:59:50.978Z,16.03
2023-05-02T12:00:54.757Z,17.07
2023-05-02T12:01:57.567Z,17.17
2023-05-02T12:02:59.479Z,17.30
2023-05-02T12:04:06.385Z,19.17
2023-05-02T12:05:10.040Z,17.80
2023-05-02T12:06:21.188Z,17.80
2023-05-02T12:07:34.229Z,18.60
2023-05-02T12:08:39.573Z,16.90
2023-05-02T12:09:50.760Z,17.70
2023-05-02T12:10:53.228Z,18.10
2023-05-02T12:11:55.671Z,19.70
2023-05-02T12:13:04.505Z,19.40
2023-05-02T12:14:07.695Z,18.80
2023-05-02T12:15:12.275Z,18.83
2023-05-02T12:16:15.385Z,17.80
2023-05-02T12:17:17.445Z,20.73
2023-05-02T12:18:23.827Z,19.80
2023-05-02T12:19:25.911Z,17.37
2023-05-02T12:20:27.654Z,21.03
2023-05-02T12:21:35.333Z,21.93
2023-05-02T12:22:37.659Z,20.40
2023-05-02T12:23:40.028Z,21.57
2023-05-02T12:24:41.900Z,19.97
2023-05-02T12:25:43.770Z,17.80
2023-05-02T12:26:45.450Z,38.50
2023-05-02T12:28:00.431Z,10.30
2023-05-02T12:29:02.999Z,15.50
2023-05-02T12:30:05.546Z,15.60
2023-05-02T12:31:11.285Z,25.63
2023-05-02T12:32:13.717Z,15.80
2023-05-02T12:33:17.004Z,17.73
2023-05-02T12:34:39.713Z,17.93
2023-05-02T12:35:41.532Z,18.63
2023-05-02T12:36:46.020Z,18.37
2023-05-02T12:37:47.598Z,19.27
2023-05-02T12:38:53.801Z,17.70
2023-05-02T12:39:57.607Z,15.70
2023-05-02T12:41:00.591Z,16.97
2023-05-02T12:42:09.404Z,17.00
2023-05-02T12:43:10.985Z,19.03
2023-05-02T12:44:12.800Z,19.20
2023-05-02T12:45:17.753Z,19.67
2023-05-02T12:46:19.517Z,19.17
2023-05-02T12:47:23.577Z,18.03
2023-05-02T12:48:26.759Z,18.23
2023-05-02T12:49:28.273Z,17.73
2023-05-02T12:50:37.520Z,18.37
2023-05-02T12:51:39.756Z,15.70
2023-05-02T12:52:54.921Z,18.30
2023-05-02T12:54:00.222Z,16.00
2023-05-02T12:55:18.719Z,17.73
2023-05-02T12:56:21.573Z,15.53
2023-05-02T12:57:24.114Z,26.47
2023-05-02T12:58:28.353Z,16.17
2023-05-02T12:59:30.999Z,15.83
2023-05-02T13:00:33.200Z,14.90
2023-05-02T13:01:35.983Z,15.17
2023-05-02T13:02:38.045Z,12.50
2023-05-02T13:03:40.785Z,13.40
2023-05-02T13:04:43.296Z,14.60
2023-05-02T13:05:44.924Z,14.67
2023-05-02T13:06:47.264Z,13.13
2023-05-02T13:07:48.966Z,12.63
2023-05-02T13:08:50.630Z,13.30
2023-05-02T13:09:52.754Z,11.80
2023-05-02T13:10:56.765Z,12.70
2023-05-02T13:12:00.943Z,13.20
2023-05-02T13:13:05.180Z,12.07
2023-05-02T13:14:10.231Z,11.30
2023-05-02T13:15:15.992Z,11.93
2023-05-02T13:16:18.939Z,11.50
2023-05-02T13:17:23.465Z,11.13
2023-05-02T13:18:28.539Z,12.37
2023-05-02T13:19:31.608Z,12.20
2023-05-02T13:20:33.335Z,12.13
2023-05-02T13:21:35.182Z,10.23
2023-05-02T13:22:38.031Z,10.10
2023-05-02T13:23:41.158Z,11.50
2023-05-02T13:24:43.883Z,11.17
2023-05-02T13:25:46.903Z,10.10
2023-05-02T13:26:48.774Z,9.53
2023-05-02T13:27:50.763Z,8.70
2023-05-02T13:28:52.747Z,9.03
2023-05-02T13:29:54.253Z,9.17
2023-05-02T13:30:55.850Z,8.70
2023-05-02T13:31:57.834Z,8.03
2023-05-02T13:33:00.948Z,4.97
2023-05-02T13:34:03.733Z,8.17
2023-05-02T13:35:06.278Z,8.17
2023-05-02T13:36:10.889Z,7.37
2023-05-02T13:37:12.875Z,8.60
2023-05-02T13:38:14.857Z,8.20
2023-05-02T13:39:18.965Z,8.93
2023-05-02T13:40:20.959Z,7.80
2023-05-02T13:41:25.347Z,6.83
2023-05-02T13:42:28.054Z,8.00
2023-05-02T13:43:29.734Z,8.70
2023-05-02T13:44:32.604Z,8.73
2023-05-02T13:45:36.024Z,8.23
2023-05-02T13:46:38.693Z,35.20
2023-05-02T13:47:41.540Z,7.93
2023-05-02T13:48:43.916Z,8.50
2023-05-02T13:49:46.481Z,8.13
2023-05-02T13:50:48.039Z,8.03
2023-05-02T13:51:50.089Z,8.30
2023-05-02T13:52:53.913Z,8.00
2023-05-02T13:53:55.654Z,8.70
2023-05-02T13:54:57.430Z,6.60